Time;durP1;ratioP1;P1;durP2;ratioP2;P2;SDS_P1;SDS_P2;PMS_P1;PMS_P2;Temp;Humidity;BMP_temperature;BMP_pressure;BME280_temperature;BME280_humidity;BME280_pressure;Samples;Min_cycle;Max_cycle;Signal;HPM_P1;HPM_P2
2022/06/10 00:00:52;;;;;;;4.00;1.80;;;11.60;99.90;;;;;;5032206;28;20416;-74
2022/06/10 00:03:19;;;;;;;1.73;1.63;;;11.60;99.90;;;;;;5032356;28;20417;-74
2022/06/10 00:05:49;;;;;;;3.13;1.60;;;11.60;99.90;;;;;;5032507;28;20210;-74
2022/06/10 00:08:22;;;;;;;1.97;1.53;;;11.60;99.90;;;;;;5032285;28;20464;-74
2022/06/10 00:10:51;;;;;;;1.90;1.80;;;11.50;99.90;;;;;;5031884;28;20408;-74
2022/06/10 00:13:22;;;;;;;1.57;1.40;;;11.50;99.90;;;;;;5031934;28;20504;-74
2022/06/10 00:15:48;;;;;;;3.57;1.60;;;11.40;99.90;;;;;;5032072;28;20471;-74
2022/06/10 00:18:14;;;;;;;3.80;1.40;;;11.40;99.90;;;;;;5032168;28;20423;-74
2022/06/10 00:20:40;;;;;;;3.03;1.73;;;11.30;99.90;;;;;;5031614;28;20424;-72
2022/06/10 00:23:06;;;;;;;2.50;1.70;;;11.30;99.90;;;;;;5032290;28;20921;-74
2022/06/10 00:25:32;;;;;;;4.03;1.90;;;11.30;99.90;;;;;;5032150;28;20957;-75
2022/06/10 00:27:58;;;;;;;3.70;0.90;;;11.30;99.90;;;;;;5031980;28;20555;-75
2022/06/10 00:30:28;;;;;;;3.43;2.00;;;11.30;99.90;;;;;;5031666;28;20397;-72
2022/06/10 00:32:54;;;;;;;4.50;1.50;;;11.20;99.90;;;;;;5031522;28;20458;-74
2022/06/10 00:35:19;;;;;;;3.10;1.33;;;11.10;99.90;;;;;;5031813;28;20784;-75
2022/06/10 00:37:45;;;;;;;2.70;1.60;;;11.10;99.90;;;;;;5031686;28;20193;-74
2022/06/10 00:40:23;;;;;;;6.03;2.00;;;11.00;99.90;;;;;;5031723;28;20173;-74
2022/06/10 00:42:49;;;;;;;8.00;1.53;;;11.00;99.90;;;;;;5031758;28;20197;-74
2022/06/10 00:45:54;;;;;;;5.93;1.43;;;11.00;99.90;;;;;;5031713;28;20447;-74
2022/06/10 00:48:28;;;;;;;7.90;1.87;;;11.00;99.90;;;;;;5031683;28;20537;-74
2022/06/10 00:50:54;;;;;;;4.57;1.57;;;10.90;99.90;;;;;;5031436;28;20393;-74
2022/06/10 00:53:23;;;;;;;5.03;1.50;;;10.90;99.90;;;;;;5031808;28;20845;-74
2022/06/10 00:55:53;;;;;;;2.40;1.70;;;10.90;99.90;;;;;;5031391;28;20525;-74
2022/06/10 00:58:34;;;;;;;3.27;1.50;;;10.90;99.90;;;;;;5032197;28;20417;-74
2022/06/10 02:31:42;;;;;;;3.70;1.60;;;10.00;99.90;;;;;;5666677;22;20847;-75
2022/06/10 02:34:08;;;;;;;4.67;2.60;;;9.90;99.90;;;;;;4973791;28;20415;-75
2022/06/10 02:36:55;;;;;;;5.50;2.03;;;9.90;99.90;;;;;;4970915;28;20951;-75
2022/06/10 02:39:27;;;;;;;4.20;1.87;;;9.90;99.90;;;;;;4973711;28;20512;-75
2022/06/10 02:41:59;;;;;;;4.00;2.40;;;9.90;99.90;;;;;;4975017;28;20858;-75
2022/06/10 02:44:47;;;;;;;3.10;2.10;;;9.80;99.90;;;;;;4975225;28;20422;-75
2022/06/10 02:47:40;;;;;;;4.03;3.00;;;9.80;99.90;;;;;;4974910;28;20457;-76
2022/06/10 02:50:07;;;;;;;4.83;2.13;;;9.80;99.90;;;;;;4974404;28;20835;-75
2022/06/10 02:52:34;;;;;;;2.40;2.03;;;9.80;99.90;;;;;;4974665;28;20436;-75
2022/06/10 02:55:00;;;;;;;2.43;2.30;;;9.80;99.90;;;;;;4974745;28;20910;-76
2022/06/10 03:03:15;;;;;;;5.13;2.73;;;9.80;99.90;;;;;;4974626;28;20513;-75
2022/06/10 03:05:50;;;;;;;6.20;2.40;;;9.80;99.90;;;;;;4974713;28;20430;-76
2022/06/10 03:08:44;;;;;;;7.17;1.93;;;9.80;99.90;;;;;;4974587;28;20823;-72
2022/06/10 03:11:35;;;;;;;2.07;1.57;;;9.70;99.90;;;;;;4972703;28;20978;-72
2022/06/10 03:14:31;;;;;;;3.13;2.17;;;9.70;99.90;;;;;;4974475;28;20417;-73
2022/06/10 03:17:25;;;;;;;2.53;2.33;;;9.70;99.90;;;;;;4974408;28;20427;-73
2022/06/10 03:20:22;;;;;;;2.07;1.97;;;9.70;99.90;;;;;;4970588;28;20520;-73
2022/06/10 03:23:03;;;;;;;2.80;2.17;;;9.70;99.90;;;;;;4974159;28;20541;-73
2022/06/10 03:25:51;;;;;;;7.53;1.93;;;9.70;99.90;;;;;;4974290;28;20417;-72
2022/06/10 03:28:55;;;;;;;4.47;2.80;;;9.70;99.90;;;;;;4974073;28;20484;-73
2022/06/10 03:31:30;;;;;;;3.47;2.20;;;9.70;99.90;;;;;;4951056;28;20826;-73
2022/06/10 03:34:04;;;;;;;6.17;2.30;;;9.70;99.90;;;;;;4974089;28;20421;-73
2022/06/10 03:36:31;;;;;;;5.80;2.70;;;9.70;99.90;;;;;;4974069;28;20416;-73
2022/06/10 03:38:58;;;;;;;6.13;3.20;;;9.70;99.90;;;;;;4974182;28;20474;-72
2022/06/10 03:41:28;;;;;;;3.40;2.23;;;9.70;99.90;;;;;;4972360;28;20452;-73
2022/06/10 03:43:56;;;;;;;3.67;2.20;;;9.70;99.90;;;;;;4973956;28;20415;-73
2022/06/10 03:46:25;;;;;;;4.53;2.20;;;9.70;99.90;;;;;;4973806;28;20423;-73
2022/06/10 03:48:53;;;;;;;3.07;2.40;;;9.80;99.90;;;;;;4973745;28;20483;-74
2022/06/10 03:51:20;;;;;;;4.87;2.93;;;9.70;99.90;;;;;;4974918;28;20443;-73
2022/06/10 03:53:47;;;;;;;2.70;2.10;;;9.80;99.90;;;;;;4974561;28;20462;-73
2022/06/10 03:56:13;;;;;;;2.53;2.33;;;9.80;99.90;;;;;;4973944;28;20465;-73
2022/06/10 03:58:39;;;;;;;3.13;2.83;;;9.90;99.90;;;;;;4973627;28;20426;-72
2022/06/10 04:01:06;;;;;;;5.20;2.70;;;9.90;99.90;;;;;;4973127;28;20438;-73
2022/06/10 04:03:32;;;;;;;4.70;2.70;;;9.90;99.90;;;;;;4973732;28;20941;-70
2022/06/10 04:05:57;;;;;;;8.73;2.87;;;10.00;99.90;;;;;;4973628;28;20426;-70
2022/06/10 04:08:23;;;;;;;5.67;2.70;;;10.10;99.90;;;;;;4973293;28;20703;-70
2022/06/10 04:10:49;;;;;;;2.87;2.60;;;10.20;99.90;;;;;;4973197;28;20179;-70
2022/06/10 04:13:17;;;;;;;2.87;2.37;;;10.20;99.90;;;;;;4973172;28;20282;-70
2022/06/10 04:15:44;;;;;;;4.27;2.20;;;10.30;99.90;;;;;;4973441;28;20179;-70
2022/06/10 04:18:10;;;;;;;2.57;2.37;;;10.40;99.90;;;;;;4973038;28;20396;-70
2022/06/10 04:20:37;;;;;;;6.57;3.17;;;10.50;99.90;;;;;;4971572;28;20435;-70
2022/06/10 04:23:04;;;;;;;4.40;3.10;;;10.50;99.90;;;;;;4972563;28;20429;-72
2022/06/10 04:25:31;;;;;;;4.03;2.70;;;10.60;99.90;;;;;;4973107;28;20801;-70
2022/06/10 04:27:56;;;;;;;2.23;2.00;;;10.70;99.90;;;;;;4973015;28;20469;-70
2022/06/10 04:30:27;;;;;;;5.07;4.37;;;10.80;99.90;;;;;;4972942;28;20410;-70
2022/06/10 04:32:53;;;;;;;7.20;3.63;;;11.00;99.90;;;;;;4972793;28;20658;-70
2022/06/10 04:35:19;;;;;;;3.63;3.03;;;11.10;99.90;;;;;;4972881;28;20423;-70
2022/06/10 04:37:45;;;;;;;3.53;3.13;;;11.20;99.90;;;;;;4973011;28;20807;-70
2022/06/10 04:40:14;;;;;;;6.30;2.77;;;11.30;99.90;;;;;;4972626;28;20423;-70
2022/06/10 04:42:40;;;;;;;5.87;3.30;;;11.40;99.90;;;;;;4972697;28;20224;-71
2022/06/10 04:45:07;;;;;;;7.03;4.80;;;11.60;99.90;;;;;;4972680;28;20784;-70
2022/06/10 04:47:32;;;;;;;9.03;3.57;;;11.70;99.90;;;;;;4972764;28;20949;-71
2022/06/10 04:49:59;;;;;;;2.50;2.30;;;11.90;99.90;;;;;;4972660;28;20503;-70
2022/06/10 04:52:27;;;;;;;5.67;2.27;;;12.00;99.90;;;;;;4972554;28;20195;-70
2022/06/10 04:54:53;;;;;;;6.23;2.87;;;12.10;99.90;;;;;;4972737;28;20504;-70
2022/06/10 04:57:19;;;;;;;8.03;3.23;;;12.30;99.90;;;;;;4972651;28;20419;-71
2022/06/10 04:59:44;;;;;;;3.37;2.40;;;12.80;99.90;;;;;;4971944;28;20408;-71
2022/06/10 05:02:10;;;;;;;1.87;1.70;;;14.60;99.90;;;;;;4972331;28;20195;-71
2022/06/10 05:04:36;;;;;;;5.50;3.70;;;17.00;99.90;;;;;;4972801;28;20251;-71
2022/06/10 05:07:01;;;;;;;3.70;1.70;;;19.10;99.90;;;;;;4972526;28;20195;-71
2022/06/10 05:09:27;;;;;;;4.93;1.80;;;20.50;99.90;;;;;;4972987;28;20176;-71
2022/06/10 05:11:52;;;;;;;4.33;2.50;;;21.50;99.90;;;;;;4974181;28;20200;-72
2022/06/10 05:14:18;;;;;;;2.77;1.57;;;22.10;99.90;;;;;;4973705;28;20180;-72
2022/06/10 05:16:44;;;;;;;4.23;1.37;;;22.90;99.90;;;;;;4973392;28;20180;-72
2022/06/10 05:19:09;;;;;;;2.17;1.57;;;23.30;99.90;;;;;;4972588;28;20206;-70
2022/06/10 05:21:35;;;;;;;5.60;1.57;;;23.40;99.90;;;;;;4972707;28;20219;-72
2022/06/10 05:24:01;;;;;;;2.30;1.53;;;23.90;99.90;;;;;;4971480;28;20184;-72
2022/06/10 05:26:29;;;;;;;3.37;1.90;;;24.50;99.90;;;;;;4972510;28;20420;-73
2022/06/10 05:28:55;;;;;;;2.50;1.57;;;24.50;99.90;;;;;;4972801;28;20168;-73
2022/06/10 05:31:21;;;;;;;6.57;1.93;;;24.50;99.90;;;;;;4972276;28;20482;-74
2022/06/10 05:36:31;;;;;;;4.20;2.27;;;24.50;99.90;;;;;;4967811;28;20239;-73
2022/06/10 05:38:56;;;;;;;5.90;1.67;;;24.30;99.90;;;;;;4970195;28;20424;-74
2022/06/10 05:44:06;;;;;;;4.60;2.10;;;23.20;99.90;;;;;;4972421;28;20190;-75
2022/06/10 05:46:32;;;;;;;7.70;2.40;;;22.80;99.90;;;;;;4971046;28;20897;-73
2022/06/10 05:48:58;;;;;;;5.17;2.20;;;22.60;99.90;;;;;;4972284;28;20656;-74
2022/06/10 05:51:23;;;;;;;2.37;1.50;;;22.40;99.90;;;;;;4971857;28;20728;-74
2022/06/10 05:53:49;;;;;;;3.97;2.47;;;21.90;99.90;;;;;;4972326;28;20195;-74
2022/06/10 05:56:14;;;;;;;3.90;1.97;;;21.90;99.90;;;;;;4972149;28;20180;-73
2022/06/10 05:58:40;;;;;;;2.77;2.57;;;21.90;99.90;;;;;;4972188;28;20649;-74
2022/06/10 06:01:05;;;;;;;7.90;2.37;;;22.30;99.90;;;;;;4971823;28;20227;-74
2022/06/10 06:03:31;;;;;;;3.33;1.97;;;22.20;99.90;;;;;;4972339;28;20380;-71
2022/06/10 06:05:56;;;;;;;5.53;2.00;;;22.10;99.90;;;;;;4972616;28;20188;-74
2022/06/10 06:08:22;;;;;;;6.67;2.77;;;22.00;99.90;;;;;;4971868;28;20693;-74
2022/06/10 06:10:47;;;;;;;4.10;1.80;;;21.90;99.90;;;;;;4973924;28;20258;-74
2022/06/10 06:13:13;;;;;;;3.10;2.27;;;22.20;99.90;;;;;;4977399;28;20176;-74
2022/06/10 06:15:39;;;;;;;2.23;2.03;;;22.20;99.90;;;;;;4977585;28;20263;-73
2022/06/10 06:18:05;;;;;;;3.13;1.60;;;21.90;99.90;;;;;;4977023;28;20172;-74
2022/06/10 06:20:31;;;;;;;3.83;2.10;;;22.10;99.90;;;;;;4976576;28;20426;-74
2022/06/10 06:22:56;;;;;;;7.83;2.40;;;22.40;99.90;;;;;;4975610;28;20251;-74
2022/06/10 06:25:22;;;;;;;5.33;1.87;;;22.90;99.90;;;;;;4975389;28;20192;-74
2022/06/10 06:27:49;;;;;;;6.20;2.03;;;22.90;99.90;;;;;;4975755;28;20218;-75
2022/06/10 06:30:36;;;;;;;3.47;1.63;;;22.60;99.90;;;;;;4975701;28;20188;-73
2022/06/10 06:33:05;;;;;;;5.60;2.17;;;22.40;99.90;;;;;;4975265;28;20443;-74
2022/06/10 06:35:31;;;;;;;8.43;2.43;;;22.40;99.90;;;;;;4975187;28;20423;-73
2022/06/10 06:37:57;;;;;;;5.77;2.20;;;22.30;99.90;;;;;;4975160;28;20419;-74
2022/06/10 06:40:23;;;;;;;2.33;1.60;;;22.50;99.90;;;;;;4974873;28;20460;-71
2022/06/10 06:42:49;;;;;;;3.43;2.33;;;22.80;99.90;;;;;;4974939;28;20479;-74
2022/06/10 06:45:17;;;;;;;4.20;2.03;;;22.80;99.90;;;;;;4974777;28;20258;-73
2022/06/10 06:47:43;;;;;;;5.90;2.50;;;22.80;99.90;;;;;;4974967;28;20233;-74
2022/06/10 06:50:11;;;;;;;6.10;2.40;;;22.50;99.90;;;;;;4974704;28;20422;-74
2022/06/10 06:52:36;;;;;;;4.00;3.37;;;22.20;99.90;;;;;;4974582;28;20431;-74
2022/06/10 06:55:03;;;;;;;5.27;2.23;;;22.30;99.90;;;;;;4974667;28;20422;-74
2022/06/10 06:57:29;;;;;;;4.47;2.40;;;22.60;99.90;;;;;;4974586;28;20176;-74
2022/06/10 07:00:03;;;;;;;3.30;2.17;;;22.60;99.90;;;;;;4974498;28;20954;-74
2022/06/10 07:02:28;;;;;;;4.93;1.80;;;22.60;99.90;;;;;;4974515;28;20338;-74
2022/06/10 07:04:53;;;;;;;4.77;2.30;;;22.80;99.90;;;;;;4973517;28;20872;-74
2022/06/10 07:07:19;;;;;;;5.47;2.80;;;22.80;99.90;;;;;;4974232;28;20208;-74
2022/06/10 07:09:44;;;;;;;5.63;2.00;;;22.80;99.90;;;;;;4974695;28;20180;-75
2022/06/10 07:12:10;;;;;;;11.83;2.70;;;22.90;99.90;;;;;;4974065;28;20223;-75
2022/06/10 07:14:35;;;;;;;3.87;2.50;;;23.10;99.90;;;;;;4974593;28;20191;-75
2022/06/10 07:17:01;;;;;;;6.20;1.90;;;23.20;99.90;;;;;;4974285;28;20191;-75
2022/06/10 07:19:27;;;;;;;10.30;2.47;;;23.60;99.90;;;;;;4974511;28;20192;-76
2022/06/10 07:21:52;;;;;;;3.93;1.87;;;23.50;99.90;;;;;;4973942;28;20211;-75
2022/06/10 07:24:18;;;;;;;7.53;2.83;;;23.80;99.90;;;;;;4973450;28;20187;-75
2022/06/10 07:26:43;;;;;;;11.47;2.50;;;23.70;99.90;;;;;;4974156;28;20203;-75
2022/06/10 07:29:10;;;;;;;7.80;2.30;;;23.20;99.90;;;;;;4974200;28;20231;-75
2022/06/10 07:31:39;;;;;;;3.37;2.07;;;23.10;99.90;;;;;;4973676;28;20204;-75
2022/06/10 07:34:06;;;;;;;5.20;2.40;;;23.10;99.90;;;;;;4974073;28;20835;-75
2022/06/10 07:36:31;;;;;;;4.93;2.43;;;23.70;99.90;;;;;;4974019;28;20518;-74
2022/06/10 07:38:57;;;;;;;7.80;2.53;;;24.20;99.90;;;;;;4974190;28;20494;-76
2022/06/10 07:44:06;;;;;;;5.70;2.50;;;24.20;99.90;;;;;;4973965;28;20701;-75
2022/06/10 07:46:32;;;;;;;10.97;2.50;;;24.40;99.90;;;;;;4973871;28;20499;-75
2022/06/10 07:48:58;;;;;;;6.53;2.17;;;25.20;99.90;;;;;;4973836;28;20196;-76
2022/06/10 07:51:24;;;;;;;10.53;2.50;;;25.40;99.90;;;;;;4973373;28;20672;-76
2022/06/10 07:53:50;;;;;;;3.87;2.30;;;25.00;99.90;;;;;;4974197;28;20403;-75
2022/06/10 07:56:18;;;;;;;5.27;2.63;;;25.10;99.90;;;;;;4974103;28;20672;-75
2022/06/10 07:58:45;;;;;;;11.67;2.50;;;25.10;99.90;;;;;;4973771;28;20645;-75
2022/06/10 08:01:11;;;;;;;4.33;2.30;;;25.10;99.90;;;;;;4973222;28;20951;-76
2022/06/10 08:03:37;;;;;;;7.97;2.43;;;25.40;99.90;;;;;;4973585;28;21003;-75
2022/06/10 08:06:03;;;;;;;8.30;5.13;;;25.60;99.90;;;;;;4973573;28;20415;-75
2022/06/10 08:08:29;;;;;;;5.00;2.77;;;25.40;99.90;;;;;;4973485;28;20200;-75
2022/06/10 08:10:55;;;;;;;10.00;2.70;;;25.50;99.90;;;;;;4973417;28;20454;-75
2022/06/10 08:13:21;;;;;;;9.00;2.90;;;25.60;99.90;;;;;;4973321;28;20231;-75
2022/06/10 08:15:47;;;;;;;12.20;2.47;;;26.00;99.90;;;;;;4973568;28;20415;-75
2022/06/10 08:18:15;;;;;;;7.83;2.20;;;26.60;99.90;;;;;;4973234;28;20176;-74
2022/06/10 08:23:28;;;;;;;4.87;2.20;;;27.00;99.90;;;;;;4973372;28;20414;-75
2022/06/10 08:25:55;;;;;;;4.97;2.50;;;27.00;99.90;;;;;;4973424;28;20419;-75
2022/06/10 08:28:22;;;;;;;10.77;2.20;;;27.10;99.90;;;;;;4973217;28;20458;-75
2022/06/10 08:30:47;;;;;;;2.50;1.77;;;27.00;99.90;;;;;;4972860;28;20412;-75
2022/06/10 08:33:13;;;;;;;11.23;2.30;;;26.90;99.90;;;;;;4973057;28;20434;-74
2022/06/10 08:35:39;;;;;;;3.23;1.87;;;26.80;99.90;;;;;;4973003;28;20182;-75
2022/06/10 08:38:09;;;;;;;4.77;1.47;;;26.80;99.90;;;;;;4973007;28;20183;-75
2022/06/10 08:40:45;;;;;;;5.33;2.80;;;27.30;99.90;;;;;;4972785;28;20411;-73
2022/06/10 08:43:40;;;;;;;4.40;1.73;;;27.40;99.90;;;;;;4971752;28;20509;-74
2022/06/10 08:46:20;;;;;;;6.17;1.90;;;27.80;99.90;;;;;;4972828;28;20419;-75
2022/06/10 08:49:01;;;;;;;6.60;2.17;;;28.40;99.90;;;;;;4972939;28;20455;-76
2022/06/10 08:51:30;;;;;;;7.93;2.67;;;28.00;99.90;;;;;;4972545;28;20459;-76
2022/06/10 08:54:20;;;;;;;2.30;1.90;;;28.30;99.90;;;;;;4972939;28;20439;-75
2022/06/10 08:56:50;;;;;;;8.93;2.30;;;28.50;99.90;;;;;;4972856;28;20443;-76
2022/06/10 08:59:24;;;;;;;4.17;1.67;;;28.40;99.90;;;;;;4972635;28;20506;-76
2022/06/10 09:02:20;;;;;;;3.63;1.97;;;28.00;99.90;;;;;;4972580;28;20443;-76
2022/06/10 09:04:55;;;;;;;3.10;1.80;;;27.50;99.90;;;;;;4973017;28;20411;-75
2022/06/10 09:07:46;;;;;;;7.77;2.47;;;27.50;99.90;;;;;;4972553;28;20958;-75
2022/06/10 09:10:21;;;;;;;3.93;2.07;;;27.90;99.90;;;;;;4972532;28;20507;-75
2022/06/10 09:13:08;;;;;;;5.80;1.97;;;27.90;99.90;;;;;;4972502;28;20517;-75
2022/06/10 09:15:42;;;;;;;5.43;2.17;;;27.90;99.90;;;;;;4972735;28;20403;-76
2022/06/10 09:18:16;;;;;;;4.17;1.80;;;28.10;99.90;;;;;;4972512;28;20415;-75
2022/06/10 09:21:00;;;;;;;2.30;1.37;;;29.00;99.90;;;;;;4972330;28;20907;-76
2022/06/10 09:23:40;;;;;;;4.17;1.50;;;29.00;99.90;;;;;;4972708;28;20423;-75
2022/06/10 09:26:12;;;;;;;6.93;1.53;;;29.50;99.90;;;;;;4972498;28;20447;-75
2022/06/10 09:28:39;;;;;;;2.50;1.57;;;30.00;99.90;;;;;;4972525;28;20462;-75
2022/06/10 09:31:35;;;;;;;5.90;2.20;;;29.50;99.80;;;;;;4971984;28;20462;-75
2022/06/10 09:34:28;;;;;;;5.00;1.80;;;29.50;99.10;;;;;;4968091;28;20438;-76
2022/06/10 09:37:09;;;;;;;6.40;2.20;;;29.80;99.50;;;;;;4973574;28;20411;-76
2022/06/10 09:42:59;;;;;;;4.00;1.40;;;29.90;96.60;;;;;;4974015;28;20523;-77
2022/06/10 09:45:45;;;;;;;7.30;1.70;;;29.90;97.40;;;;;;4972743;28;20908;-76
2022/06/10 09:48:24;;;;;;;7.63;1.83;;;30.00;97.80;;;;;;4976016;28;20462;-76
2022/06/10 09:51:00;;;;;;;4.97;1.67;;;30.40;97.00;;;;;;4974709;28;20423;-74
2022/06/10 09:53:50;;;;;;;3.40;1.80;;;30.10;99.20;;;;;;4976086;28;20418;-75
2022/06/10 09:56:24;;;;;;;2.80;1.23;;;30.20;96.60;;;;;;4974738;28;20431;-75
2022/06/10 09:58:52;;;;;;;8.17;2.00;;;29.60;95.30;;;;;;4975947;28;20443;-75
2022/06/10 10:01:35;;;;;;;8.10;2.33;;;29.20;95.40;;;;;;4975483;28;20526;-74
2022/06/10 10:04:22;;;;;;;5.03;1.67;;;28.50;95.90;;;;;;4975919;28;21104;-75
2022/06/10 10:07:02;;;;;;;6.70;1.67;;;27.80;96.30;;;;;;4975747;28;20880;-76
2022/06/10 10:10:06;;;;;;;4.63;1.63;;;28.40;96.40;;;;;;4975734;28;20833;-75
2022/06/10 10:13:09;;;;;;;2.57;2.00;;;28.60;97.50;;;;;;4915670;29;20460;-75
2022/06/10 10:16:18;;;;;;;3.50;1.70;;;27.80;96.70;;;;;;4916036;29;20413;-76
2022/06/10 10:18:58;;;;;;;7.30;2.20;;;27.20;97.40;;;;;;4960192;28;20411;-75
2022/06/10 10:21:47;;;;;;;5.70;1.80;;;26.20;99.50;;;;;;4975305;28;21214;-75
2022/06/10 10:24:20;;;;;;;3.83;2.43;;;26.80;99.90;;;;;;4947749;28;20785;-74
2022/06/10 10:26:46;;;;;;;5.27;1.67;;;27.10;98.40;;;;;;4975639;28;20482;-74
2022/06/10 10:29:19;;;;;;;4.83;2.10;;;27.10;97.40;;;;;;4975267;28;20416;-75
2022/06/10 10:31:49;;;;;;;4.40;1.93;;;26.40;98.80;;;;;;4974890;28;20502;-76
2022/06/10 10:34:22;;;;;;;2.70;1.47;;;26.10;99.50;;;;;;4975243;28;20422;-74
2022/06/10 10:36:55;;;;;;;7.73;2.03;;;26.60;99.90;;;;;;4975429;28;20416;-74
2022/06/10 10:39:38;;;;;;;5.30;1.30;;;26.70;99.90;;;;;;4974829;28;20430;-75
2022/06/10 10:42:23;;;;;;;3.50;1.57;;;27.30;99.90;;;;;;4974762;28;20486;-76
2022/06/10 10:44:59;;;;;;;6.00;2.20;;;28.10;99.90;;;;;;4975205;28;20827;-75
2022/06/10 10:47:26;;;;;;;2.87;1.50;;;28.50;98.40;;;;;;4975071;28;20494;-76
2022/06/10 10:50:03;;;;;;;4.20;1.80;;;28.80;96.40;;;;;;4971227;28;20438;-77
2022/06/10 10:52:42;;;;;;;5.73;1.53;;;28.50;95.30;;;;;;4970846;28;20526;-77
2022/06/10 10:55:14;;;;;;;4.53;1.60;;;28.70;95.70;;;;;;4970988;28;20508;-76
2022/06/10 10:57:51;;;;;;;4.70;1.60;;;28.90;95.20;;;;;;4972355;28;20427;-75
2022/06/10 11:00:16;;;;;;;4.50;1.60;;;28.80;96.90;;;;;;4974938;28;20419;-75
2022/06/10 11:02:55;;;;;;;4.90;1.53;;;29.00;99.10;;;;;;4974468;28;20451;-76
2022/06/10 11:05:37;;;;;;;4.07;1.27;;;29.20;96.70;;;;;;4974674;28;20180;-75
2022/06/10 11:08:17;;;;;;;5.53;1.40;;;29.20;94.50;;;;;;4974687;28;20546;-75
2022/06/10 11:11:03;;;;;;;11.00;2.43;;;29.20;95.70;;;;;;4974588;28;20430;-75
2022/06/10 11:13:40;;;;;;;7.07;1.40;;;28.50;93.90;;;;;;4974627;28;20972;-75
2022/06/10 11:16:23;;;;;;;3.80;1.27;;;28.50;94.30;;;;;;4974425;28;20415;-76
2022/06/10 11:18:51;;;;;;;8.13;1.63;;;28.40;95.00;;;;;;4974715;28;20427;-75
2022/06/10 11:21:17;;;;;;;5.50;1.70;;;28.30;95.00;;;;;;4974064;28;20446;-76
2022/06/10 11:23:55;;;;;;;2.40;1.23;;;27.60;94.80;;;;;;4974569;28;20430;-75
2022/06/10 11:26:22;;;;;;;4.93;1.67;;;27.50;96.90;;;;;;4974496;28;20474;-75
2022/06/10 11:28:57;;;;;;;4.57;1.63;;;27.60;96.30;;;;;;4974553;28;20469;-75
2022/06/10 11:31:26;;;;;;;5.43;2.70;;;27.50;95.90;;;;;;4973877;28;20461;-75
2022/06/10 11:33:56;;;;;;;4.10;1.20;;;27.60;94.60;;;;;;4974386;28;20419;-75
2022/06/10 11:36:27;;;;;;;7.30;2.20;;;27.20;96.50;;;;;;4974092;28;20427;-75
2022/06/10 11:39:08;;;;;;;4.53;1.90;;;26.90;97.80;;;;;;4974088;28;20470;-75
2022/06/10 11:41:34;;;;;;;9.33;1.83;;;26.40;96.90;;;;;;4972537;28;20439;-76
2022/06/10 11:44:14;;;;;;;4.70;1.90;;;26.20;99.70;;;;;;4973987;28;20407;-75
2022/06/10 11:46:54;;;;;;;3.40;1.43;;;25.80;99.40;;;;;;4974003;28;20431;-75
2022/06/10 11:49:33;;;;;;;1.73;1.43;;;25.90;99.90;;;;;;4973801;28;20466;-76
2022/06/10 11:52:10;;;;;;;4.53;1.87;;;25.90;98.70;;;;;;4972316;28;20947;-75
2022/06/10 11:54:51;;;;;;;3.33;2.13;;;26.20;98.00;;;;;;4974101;28;20763;-75
2022/06/10 12:00:24;;;;;;;3.63;1.87;;;26.10;97.70;;;;;;4972126;28;20432;-75
2022/06/10 12:03:28;;;;;;;3.87;2.00;;;25.70;97.80;;;;;;4992934;28;20442;-75
2022/06/10 12:05:57;;;;;;;3.77;1.73;;;25.10;98.00;;;;;;4993188;28;20422;-75
2022/06/10 12:08:46;;;;;;;5.57;1.90;;;25.10;98.90;;;;;;4992648;28;20787;-75
2022/06/10 12:11:46;;;;;;;5.17;1.63;;;25.10;99.90;;;;;;4992550;28;20427;-75
2022/06/10 12:14:31;;;;;;;5.00;1.40;;;25.70;99.90;;;;;;4992793;28;20825;-75
2022/06/10 12:17:03;;;;;;;6.13;2.10;;;26.10;97.80;;;;;;4991591;28;20433;-75
2022/06/10 12:19:38;;;;;;;2.60;1.67;;;25.80;98.30;;;;;;4991812;28;20522;-75
2022/06/10 12:22:04;;;;;;;5.50;1.80;;;25.80;97.80;;;;;;4992356;28;20799;-75
2022/06/10 12:24:31;;;;;;;5.50;1.80;;;25.50;97.40;;;;;;4992746;28;20414;-75
2022/06/10 12:27:08;;;;;;;3.60;1.43;;;25.40;97.80;;;;;;4992632;28;20207;-74
2022/06/10 12:30:02;;;;;;;6.10;1.33;;;25.10;98.60;;;;;;4992619;28;20418;-75
2022/06/10 12:32:30;;;;;;;5.40;1.50;;;24.60;98.30;;;;;;4992238;28;20457;-75
2022/06/10 12:35:08;;;;;;;11.70;2.67;;;24.60;99.40;;;;;;4992509;28;20920;-73
2022/06/10 12:37:46;;;;;;;2.87;1.70;;;24.60;99.90;;;;;;4992782;28;20457;-75
2022/06/10 12:40:19;;;;;;;4.07;1.60;;;24.70;99.80;;;;;;4992410;28;20900;-75
2022/06/10 12:43:06;;;;;;;5.07;1.83;;;24.80;99.90;;;;;;4992495;28;20525;-75
2022/06/10 12:45:51;;;;;;;3.80;1.83;;;24.70;99.00;;;;;;4991337;28;20426;-75
2022/06/10 12:48:18;;;;;;;3.53;1.33;;;24.70;98.80;;;;;;4992473;28;20462;-75
2022/06/10 12:51:01;;;;;;;3.97;1.70;;;24.60;99.50;;;;;;4992228;28;20410;-76
2022/06/10 12:53:58;;;;;;;7.40;1.83;;;24.40;99.60;;;;;;4992686;28;20490;-75
2022/06/10 12:56:32;;;;;;;5.60;1.73;;;24.20;98.80;;;;;;4993628;28;20414;-74
2022/06/10 12:59:07;;;;;;;5.53;1.67;;;24.30;99.90;;;;;;4992355;28;20406;-75
2022/06/10 13:01:32;;;;;;;3.10;2.10;;;24.40;99.90;;;;;;4991938;28;20827;-74
2022/06/10 13:03:59;;;;;;;2.97;1.23;;;24.50;99.90;;;;;;4992283;28;20418;-75
2022/06/10 13:06:29;;;;;;;1.67;1.10;;;24.60;99.90;;;;;;4992262;28;20171;-76
2022/06/10 13:09:15;;;;;;;4.73;1.23;;;24.70;99.90;;;;;;4992145;28;20473;-76
2022/06/10 13:11:54;;;;;;;7.00;1.83;;;24.80;99.90;;;;;;4992055;28;20453;-76
2022/06/10 13:14:23;;;;;;;5.50;1.60;;;24.80;99.10;;;;;;4976347;28;20458;-75
2022/06/10 13:16:57;;;;;;;4.90;1.70;;;25.00;99.80;;;;;;4969038;28;20458;-74
2022/06/10 13:19:29;;;;;;;2.87;1.40;;;25.50;99.40;;;;;;4970005;28;20426;-74
2022/06/10 13:21:55;;;;;;;1.53;1.30;;;25.50;98.30;;;;;;4973568;28;20472;-75
2022/06/10 13:24:21;;;;;;;5.20;1.60;;;25.50;98.20;;;;;;4975457;28;20454;-76
2022/06/10 13:26:46;;;;;;;6.23;1.70;;;25.00;97.30;;;;;;4975235;28;20183;-75
2022/06/10 13:29:13;;;;;;;3.47;1.13;;;24.80;98.90;;;;;;4975292;28;20685;-76
2022/06/10 13:31:54;;;;;;;3.23;1.70;;;24.70;99.20;;;;;;4974787;28;20207;-75
2022/06/10 13:34:23;;;;;;;4.60;1.50;;;24.80;98.70;;;;;;4974811;28;20411;-75
2022/06/10 13:36:56;;;;;;;3.53;1.40;;;24.70;99.90;;;;;;4975649;28;20450;-76
2022/06/10 13:39:31;;;;;;;6.73;1.40;;;24.70;99.10;;;;;;4976716;28;20441;-76
2022/06/10 13:41:58;;;;;;;5.73;1.40;;;24.60;98.70;;;;;;4976355;28;20947;-76
2022/06/10 13:44:30;;;;;;;3.33;1.77;;;24.60;99.00;;;;;;4976659;28;20415;-76
2022/06/10 13:46:57;;;;;;;4.10;1.43;;;24.50;98.50;;;;;;4976395;28;20470;-76
2022/06/10 13:49:46;;;;;;;8.00;1.30;;;24.80;99.90;;;;;;4976415;28;20411;-75
2022/06/10 13:52:32;;;;;;;4.60;1.53;;;25.10;97.50;;;;;;4976016;28;20498;-76
2022/06/10 13:55:16;;;;;;;3.50;1.53;;;25.00;97.20;;;;;;4976407;28;20407;-75
2022/06/10 13:57:42;;;;;;;4.80;1.60;;;25.10;98.00;;;;;;4975152;28;20411;-76
2022/06/10 14:00:19;;;;;;;3.20;1.60;;;24.80;97.30;;;;;;4976182;28;20786;-76
2022/06/10 14:02:46;;;;;;;3.47;1.30;;;24.80;98.60;;;;;;4975957;28;20196;-75
2022/06/10 14:05:19;;;;;;;11.73;1.47;;;24.70;98.00;;;;;;4976103;28;20470;-74
2022/06/10 14:07:45;;;;;;;1.90;1.07;;;24.80;97.90;;;;;;4975882;28;20522;-76
2022/06/10 14:10:22;;;;;;;3.90;1.43;;;24.90;97.60;;;;;;4974504;28;20419;-76
2022/06/10 14:13:05;;;;;;;2.30;1.10;;;24.90;96.80;;;;;;4975957;28;20486;-75
2022/06/10 14:15:37;;;;;;;8.87;1.00;;;24.80;96.80;;;;;;4976310;28;20407;-75
2022/06/10 14:18:14;;;;;;;1.90;1.10;;;24.40;97.20;;;;;;4975773;28;20447;-75
2022/06/10 14:20:40;;;;;;;6.33;1.60;;;24.20;98.20;;;;;;4974245;28;20423;-73
2022/06/10 14:23:23;;;;;;;1.30;1.10;;;24.00;98.20;;;;;;4975450;28;20473;-76
2022/06/10 14:26:11;;;;;;;2.63;1.80;;;23.80;98.50;;;;;;4975717;28;20267;-76
2022/06/10 14:28:42;;;;;;;1.70;1.00;;;23.80;98.10;;;;;;4975593;28;20550;-76
2022/06/10 14:31:27;;;;;;;1.53;0.80;;;24.20;99.90;;;;;;4975099;28;20583;-75
2022/06/10 14:33:56;;;;;;;4.10;1.70;;;24.40;98.60;;;;;;4975340;28;20415;-76
2022/06/10 14:36:25;;;;;;;6.37;1.50;;;24.40;98.30;;;;;;4975490;28;20491;-76
2022/06/10 14:39:05;;;;;;;4.00;1.13;;;24.30;99.90;;;;;;4975429;28;20423;-74
2022/06/10 14:41:33;;;;;;;3.13;1.33;;;24.30;99.10;;;;;;4975328;28;20940;-76
2022/06/10 14:44:14;;;;;;;4.20;1.10;;;24.40;99.40;;;;;;4975354;28;20415;-75
2022/06/10 14:46:40;;;;;;;1.37;1.23;;;24.60;97.10;;;;;;4975197;28;20408;-75
2022/06/10 14:49:27;;;;;;;2.77;1.30;;;24.70;98.30;;;;;;4975106;28;20467;-75
2022/06/10 14:51:52;;;;;;;3.90;1.10;;;25.00;99.90;;;;;;4975098;28;20824;-75
2022/06/10 14:54:19;;;;;;;8.03;1.83;;;25.10;98.90;;;;;;4975104;28;20423;-77
2022/06/10 14:56:50;;;;;;;1.97;1.10;;;25.00;97.00;;;;;;4975140;28;20641;-78
2022/06/10 14:59:26;;;;;;;3.50;1.27;;;25.10;97.30;;;;;;4973624;28;20952;-72
2022/06/10 15:01:57;;;;;;;2.50;0.97;;;25.10;98.30;;;;;;4974179;28;20426;-72
2022/06/10 15:04:23;;;;;;;2.30;1.10;;;25.20;98.70;;;;;;4974540;28;20450;-72
2022/06/10 15:06:59;;;;;;;1.43;1.20;;;25.10;99.20;;;;;;4974422;28;20924;-72
2022/06/10 15:09:32;;;;;;;2.50;1.20;;;25.10;99.00;;;;;;4973793;28;20231;-73